sensor_id;sensor_type;location;lat;lon;timestamp;pressure;altitude;pressure_sealevel;temperature;humidity
62420;BME280;48460;51.616;5.426;2022-09-27T00:00:23;99674.50;;;8.78;100.00
62420;BME280;48460;51.616;5.426;2022-09-27T00:02:49;99670.19;;;8.77;100.00
62420;BME280;48460;51.616;5.426;2022-09-27T00:05:15;99667.47;;;8.79;100.00
62420;BME280;48460;51.616;5.426;2022-09-27T00:07:40;99682.38;;;8.78;100.00
62420;BME280;48460;51.616;5.426;2022-09-27T00:10:07;99680.47;;;8.80;100.00
62420;BME280;48460;51.616;5.426;2022-09-27T00:12:33;99689.09;;;8.82;100.00
62420;BME280;48460;51.616;5.426;2022-09-27T00:14:59;99690.03;;;8.81;100.00
62420;BME280;48460;51.616;5.426;2022-09-27T00:17:26;99685.00;;;8.78;100.00
62420;BME280;48460;51.616;5.426;2022-09-27T00:19:52;99691.81;;;8.81;100.00
62420;BME280;48460;51.616;5.426;2022-09-27T00:22:20;99686.47;;;8.82;100.00
62420;BME280;48460;51.616;5.426;2022-09-27T00:24:46;99706.59;;;8.82;100.00
62420;BME280;48460;51.616;5.426;2022-09-27T00:27:11;99703.34;;;8.78;100.00
62420;BME280;48460;51.616;5.426;2022-09-27T00:29:36;99709.16;;;8.83;100.00
62420;BME280;48460;51.616;5.426;2022-09-27T00:32:02;99693.56;;;8.80;100.00
62420;BME280;48460;51.616;5.426;2022-09-27T00:34:27;99681.72;;;8.75;100.00
62420;BME280;48460;51.616;5.426;2022-09-27T00:36:53;99689.41;;;8.78;100.00
62420;BME280;48460;51.616;5.426;2022-09-27T00:39:19;99690.44;;;8.75;100.00
62420;BME280;48460;51.616;5.426;2022-09-27T00:41:45;99692.28;;;8.73;100.00
62420;BME280;48460;51.616;5.426;2022-09-27T00:47:07;99706.34;;;8.72;100.00
62420;BME280;48460;51.616;5.426;2022-09-27T00:49:39;99701.28;;;8.69;100.00
62420;BME280;48460;51.616;5.426;2022-09-27T00:52:09;99712.63;;;8.70;100.00
62420;BME280;48460;51.616;5.426;2022-09-27T00:54:38;99717.03;;;8.69;100.00
62420;BME280;48460;51.616;5.426;2022-09-27T00:57:05;99709.16;;;8.69;100.00
62420;BME280;48460;51.616;5.426;2022-09-27T00:59:42;99707.66;;;8.65;100.00
62420;BME280;48460;51.616;5.426;2022-09-27T01:02:10;99720.66;;;8.66;100.00
62420;BME280;48460;51.616;5.426;2022-09-27T01:04:37;99724.06;;;8.69;100.00
62420;BME280;48460;51.616;5.426;2022-09-27T01:07:03;99727.41;;;8.71;100.00
62420;BME280;48460;51.616;5.426;2022-09-27T01:09:28;99720.47;;;8.70;100.00
62420;BME280;48460;51.616;5.426;2022-09-27T01:12:30;99719.53;;;8.71;100.00
62420;BME280;48460;51.616;5.426;2022-09-27T01:26:24;99709.53;;;8.63;100.00
62420;BME280;48460;51.616;5.426;2022-09-27T01:34:53;99716.72;;;8.59;100.00
62420;BME280;48460;51.616;5.426;2022-09-27T01:48:07;99729.75;;;8.47;100.00
62420;BME280;48460;51.616;5.426;2022-09-27T01:50:16;99740.72;;;8.39;100.00
62420;BME280;48460;51.616;5.426;2022-09-27T01:52:54;99745.94;;;8.39;100.00
62420;BME280;48460;51.616;5.426;2022-09-27T01:55:23;99740.72;;;8.39;100.00
62420;BME280;48460;51.616;5.426;2022-09-27T01:58:00;99746.09;;;8.36;100.00
62420;BME280;48460;51.616;5.426;2022-09-27T02:00:28;99739.09;;;8.36;100.00
62420;BME280;48460;51.616;5.426;2022-09-27T02:02:57;99742.63;;;8.35;100.00
62420;BME280;48460;51.616;5.426;2022-09-27T02:05:29;99730.66;;;8.31;100.00
62420;BME280;48460;51.616;5.426;2022-09-27T02:08:07;99721.00;;;8.32;100.00
62420;BME280;48460;51.616;5.426;2022-09-27T02:10:39;99724.94;;;8.25;100.00
62420;BME280;48460;51.616;5.426;2022-09-27T02:15:45;99731.47;;;8.17;100.00
62420;BME280;48460;51.616;5.426;2022-09-27T02:18:16;99738.03;;;8.10;100.00
62420;BME280;48460;51.616;5.426;2022-09-27T02:21:03;99738.78;;;8.12;100.00
62420;BME280;48460;51.616;5.426;2022-09-27T02:23:39;99735.78;;;8.04;100.00
62420;BME280;48460;51.616;5.426;2022-09-27T02:26:17;99727.25;;;8.01;100.00
62420;BME280;48460;51.616;5.426;2022-09-27T02:28:51;99741.25;;;7.99;100.00
62420;BME280;48460;51.616;5.426;2022-09-27T02:31:21;99741.19;;;8.01;100.00
62420;BME280;48460;51.616;5.426;2022-09-27T02:33:51;99739.78;;;7.95;100.00
62420;BME280;48460;51.616;5.426;2022-09-27T02:36:19;99734.53;;;7.95;100.00
62420;BME280;48460;51.616;5.426;2022-09-27T02:38:45;99747.16;;;7.89;100.00
62420;BME280;48460;51.616;5.426;2022-09-27T02:41:19;99742.00;;;7.87;100.00
62420;BME280;48460;51.616;5.426;2022-09-27T02:43:49;99748.94;;;7.88;100.00
62420;BME280;48460;51.616;5.426;2022-09-27T02:57:32;99741.88;;;7.74;100.00
62420;BME280;48460;51.616;5.426;2022-09-27T03:00:06;99742.03;;;7.71;100.00
62420;BME280;48460;51.616;5.426;2022-09-27T03:05:08;99732.13;;;7.62;100.00
62420;BME280;48460;51.616;5.426;2022-09-27T03:07:35;99735.91;;;7.57;100.00
62420;BME280;48460;51.616;5.426;2022-09-27T03:10:03;99741.41;;;7.52;100.00
62420;BME280;48460;51.616;5.426;2022-09-27T03:12:28;99728.44;;;7.50;100.00
62420;BME280;48460;51.616;5.426;2022-09-27T03:14:55;99727.66;;;7.48;100.00
62420;BME280;48460;51.616;5.426;2022-09-27T03:17:21;99728.66;;;7.46;100.00
62420;BME280;48460;51.616;5.426;2022-09-27T03:19:47;99740.16;;;7.43;100.00
62420;BME280;48460;51.616;5.426;2022-09-27T03:22:13;99731.56;;;7.41;100.00
62420;BME280;48460;51.616;5.426;2022-09-27T03:24:38;99738.56;;;7.41;100.00
62420;BME280;48460;51.616;5.426;2022-09-27T03:27:04;99738.56;;;7.41;100.00
62420;BME280;48460;51.616;5.426;2022-09-27T03:29:30;99741.19;;;7.41;100.00
62420;BME280;48460;51.616;5.426;2022-09-27T03:31:56;99737.53;;;7.43;100.00
62420;BME280;48460;51.616;5.426;2022-09-27T03:34:21;99745.38;;;7.43;100.00
62420;BME280;48460;51.616;5.426;2022-09-27T03:36:47;99757.44;;;7.46;100.00
62420;BME280;48460;51.616;5.426;2022-09-27T03:39:12;99752.03;;;7.49;100.00
62420;BME280;48460;51.616;5.426;2022-09-27T03:41:37;99762.50;;;7.49;100.00
62420;BME280;48460;51.616;5.426;2022-09-27T03:44:05;99772.78;;;7.52;100.00
62420;BME280;48460;51.616;5.426;2022-09-27T03:46:30;99772.63;;;7.55;100.00
62420;BME280;48460;51.616;5.426;2022-09-27T03:48:56;99795.81;;;7.61;100.00
62420;BME280;48460;51.616;5.426;2022-09-27T03:51:21;99808.66;;;7.66;100.00
62420;BME280;48460;51.616;5.426;2022-09-27T03:53:47;99811.09;;;7.69;100.00
62420;BME280;48460;51.616;5.426;2022-09-27T03:56:13;99806.63;;;7.71;100.00
62420;BME280;48460;51.616;5.426;2022-09-27T03:58:38;99820.09;;;7.79;100.00
62420;BME280;48460;51.616;5.426;2022-09-27T04:01:04;99807.97;;;7.78;100.00
62420;BME280;48460;51.616;5.426;2022-09-27T04:03:29;99804.50;;;7.78;100.00
62420;BME280;48460;51.616;5.426;2022-09-27T04:05:54;99799.78;;;7.68;100.00
62420;BME280;48460;51.616;5.426;2022-09-27T04:08:20;99800.81;;;7.66;100.00
62420;BME280;48460;51.616;5.426;2022-09-27T04:10:48;99799.38;;;7.60;100.00
62420;BME280;48460;51.616;5.426;2022-09-27T04:13:14;99789.19;;;7.56;100.00
62420;BME280;48460;51.616;5.426;2022-09-27T04:15:39;99771.97;;;7.51;100.00
62420;BME280;48460;51.616;5.426;2022-09-27T04:18:05;99771.19;;;7.49;100.00
62420;BME280;48460;51.616;5.426;2022-09-27T04:20:31;99767.06;;;7.45;100.00
62420;BME280;48460;51.616;5.426;2022-09-27T04:22:56;99767.84;;;7.47;100.00
62420;BME280;48460;51.616;5.426;2022-09-27T04:25:24;99771.28;;;7.48;100.00
62420;BME280;48460;51.616;5.426;2022-09-27T04:27:50;99763.44;;;7.48;100.00
62420;BME280;48460;51.616;5.426;2022-09-27T04:30:21;99757.38;;;7.47;100.00
62420;BME280;48460;51.616;5.426;2022-09-27T04:32:47;99772.78;;;7.52;100.00
62420;BME280;48460;51.616;5.426;2022-09-27T04:35:13;99763.34;;;7.49;100.00
62420;BME280;48460;51.616;5.426;2022-09-27T04:37:58;99763.28;;;7.51;100.00
62420;BME280;48460;51.616;5.426;2022-09-27T04:40:24;99765.13;;;7.49;100.00
62420;BME280;48460;51.616;5.426;2022-09-27T04:42:50;99770.44;;;7.47;100.00
62420;BME280;48460;51.616;5.426;2022-09-27T04:45:17;99769.63;;;7.47;100.00
62420;BME280;48460;51.616;5.426;2022-09-27T04:47:46;99772.41;;;7.44;100.00
62420;BME280;48460;51.616;5.426;2022-09-27T04:50:13;99781.16;;;7.43;100.00
62420;BME280;48460;51.616;5.426;2022-09-27T04:52:39;99779.84;;;7.36;100.00
62420;BME280;48460;51.616;5.426;2022-09-27T04:55:05;99784.97;;;7.37;100.00
62420;BME280;48460;51.616;5.426;2022-09-27T04:57:31;99796.38;;;7.36;100.00
62420;BME280;48460;51.616;5.426;2022-09-27T04:59:57;99801.59;;;7.36;100.00
62420;BME280;48460;51.616;5.426;2022-09-27T05:02:26;99803.03;;;7.42;100.00
62420;BME280;48460;51.616;5.426;2022-09-27T05:04:53;99821.22;;;7.43;100.00
62420;BME280;48460;51.616;5.426;2022-09-27T05:07:25;99825.91;;;7.38;100.00
62420;BME280;48460;51.616;5.426;2022-09-27T05:09:51;99825.91;;;7.38;100.00
62420;BME280;48460;51.616;5.426;2022-09-27T05:12:17;99824.97;;;7.39;100.00
62420;BME280;48460;51.616;5.426;2022-09-27T05:14:42;99825.97;;;7.37;100.00
62420;BME280;48460;51.616;5.426;2022-09-27T05:17:08;99815.50;;;7.37;100.00
62420;BME280;48460;51.616;5.426;2022-09-27T05:19:34;99814.91;;;7.31;100.00
62420;BME280;48460;51.616;5.426;2022-09-27T05:22:00;99815.69;;;7.34;100.00
62420;BME280;48460;51.616;5.426;2022-09-27T05:24:25;99797.38;;;7.34;100.00
62420;BME280;48460;51.616;5.426;2022-09-27T05:26:55;99792.41;;;7.29;100.00
62420;BME280;48460;51.616;5.426;2022-09-27T05:29:21;99788.09;;;7.28;100.00
62420;BME280;48460;51.616;5.426;2022-09-27T05:31:46;99789.97;;;7.26;100.00
62420;BME280;48460;51.616;5.426;2022-09-27T05:34:11;99796.03;;;7.26;100.00
62420;BME280;48460;51.616;5.426;2022-09-27T05:36:38;99795.38;;;7.23;100.00
62420;BME280;48460;51.616;5.426;2022-09-27T05:39:04;99793.75;;;7.20;100.00
62420;BME280;48460;51.616;5.426;2022-09-27T05:41:29;99800.50;;;7.24;100.00
62420;BME280;48460;51.616;5.426;2022-09-27T05:43:57;99797.88;;;7.24;100.00
62420;BME280;48460;51.616;5.426;2022-09-27T05:46:22;99791.03;;;7.22;100.00
62420;BME280;48460;51.616;5.426;2022-09-27T05:48:47;99790.88;;;7.25;100.00
62420;BME280;48460;51.616;5.426;2022-09-27T05:51:13;99787.34;;;7.26;100.00
62420;BME280;48460;51.616;5.426;2022-09-27T05:53:39;99780.50;;;7.23;100.00
62420;BME280;48460;51.616;5.426;2022-09-27T05:56:04;99783.19;;;7.22;100.00
62420;BME280;48460;51.616;5.426;2022-09-27T05:58:30;99795.94;;;7.28;100.00
62420;BME280;48460;51.616;5.426;2022-09-27T06:00:56;99792.41;;;7.29;100.00
62420;BME280;48460;51.616;5.426;2022-09-27T06:03:21;99790.13;;;7.23;100.00
62420;BME280;48460;51.616;5.426;2022-09-27T06:05:46;99798.72;;;7.25;100.00
62420;BME280;48460;51.616;5.426;2022-09-27T06:08:12;99793.59;;;7.23;100.00
62420;BME280;48460;51.616;5.426;2022-09-27T06:10:39;99779.50;;;7.26;100.00
62420;BME280;48460;51.616;5.426;2022-09-27T06:13:10;99794.44;;;7.24;100.00
62420;BME280;48460;51.616;5.426;2022-09-27T06:15:38;99815.06;;;7.28;100.00
62420;BME280;48460;51.616;5.426;2022-09-27T06:18:06;99821.19;;;7.29;100.00
62420;BME280;48460;51.616;5.426;2022-09-27T06:20:34;99818.47;;;7.30;100.00
62420;BME280;48460;51.616;5.426;2022-09-27T06:25:34;99816.78;;;7.29;100.00
62420;BME280;48460;51.616;5.426;2022-09-27T06:28:00;99806.22;;;7.31;100.00
62420;BME280;48460;51.616;5.426;2022-09-27T06:30:26;99810.63;;;7.30;100.00
62420;BME280;48460;51.616;5.426;2022-09-27T06:32:59;99810.72;;;7.29;100.00
62420;BME280;48460;51.616;5.426;2022-09-27T06:35:26;99816.78;;;7.29;100.00
62420;BME280;48460;51.616;5.426;2022-09-27T06:37:53;99803.94;;;7.25;100.00
62420;BME280;48460;51.616;5.426;2022-09-27T06:40:18;99793.31;;;7.28;100.00
62420;BME280;48460;51.616;5.426;2022-09-27T06:42:46;99796.09;;;7.25;100.00
62420;BME280;48460;51.616;5.426;2022-09-27T06:45:12;99819.31;;;7.31;100.00
62420;BME280;48460;51.616;5.426;2022-09-27T06:47:37;99803.59;;;7.31;100.00
62420;BME280;48460;51.616;5.426;2022-09-27T06:50:04;99812.41;;;7.30;100.00
62420;BME280;48460;51.616;5.426;2022-09-27T06:52:34;99809.50;;;7.35;100.00
62420;BME280;48460;51.616;5.426;2022-09-27T06:55:02;99809.59;;;7.33;100.00
62420;BME280;48460;51.616;5.426;2022-09-27T06:57:27;99806.22;;;7.31;100.00
62420;BME280;48460;51.616;5.426;2022-09-27T07:00:12;99803.88;;;7.26;100.00
62420;BME280;48460;51.616;5.426;2022-09-27T07:02:55;99819.22;;;7.33;100.00
62420;BME280;48460;51.616;5.426;2022-09-27T07:05:26;99814.91;;;7.31;100.00
62420;BME280;48460;51.616;5.426;2022-09-27T07:07:52;99819.84;;;7.38;100.00
62420;BME280;48460;51.616;5.426;2022-09-27T07:10:20;99823.28;;;7.38;100.00
62420;BME280;48460;51.616;5.426;2022-09-27T07:12:46;99827.41;;;7.42;100.00
62420;BME280;48460;51.616;5.426;2022-09-27T07:15:12;99821.00;;;7.48;100.00
62420;BME280;48460;51.616;5.426;2022-09-27T07:17:38;99823.28;;;7.54;100.00
62420;BME280;48460;51.616;5.426;2022-09-27T07:20:04;99832.78;;;7.55;100.00
62420;BME280;48460;51.616;5.426;2022-09-27T07:22:29;99825.88;;;7.54;100.00
62420;BME280;48460;51.616;5.426;2022-09-27T07:24:55;99833.38;;;7.60;100.00
62420;BME280;48460;51.616;5.426;2022-09-27T07:27:21;99831.53;;;7.62;100.00
62420;BME280;48460;51.616;5.426;2022-09-27T07:29:46;99837.34;;;7.67;100.00
62420;BME280;48460;51.616;5.426;2022-09-27T07:32:12;99828.31;;;7.73;100.00
62420;BME280;48460;51.616;5.426;2022-09-27T07:34:38;99841.13;;;7.78;100.00
62420;BME280;48460;51.616;5.426;2022-09-27T07:37:03;99836.66;;;7.80;100.00
62420;BME280;48460;51.616;5.426;2022-09-27T07:39:30;99833.88;;;7.83;100.00
62420;BME280;48460;51.616;5.426;2022-09-27T07:41:56;99843.16;;;7.88;100.00
62420;BME280;48460;51.616;5.426;2022-09-27T07:44:21;99851.94;;;7.87;100.00
62420;BME280;48460;51.616;5.426;2022-09-27T07:46:47;99844.84;;;7.89;100.00
62420;BME280;48460;51.616;5.426;2022-09-27T07:49:12;99853.34;;;7.93;100.00
62420;BME280;48460;51.616;5.426;2022-09-27T07:51:37;99851.75;;;7.90;100.00
62420;BME280;48460;51.616;5.426;2022-09-27T07:54:03;99850.56;;;7.96;100.00
62420;BME280;48460;51.616;5.426;2022-09-27T07:56:28;99854.59;;;8.02;100.00
62420;BME280;48460;51.616;5.426;2022-09-27T07:58:56;99858.84;;;8.04;100.00
62420;BME280;48460;51.616;5.426;2022-09-27T08:01:22;99855.28;;;8.05;100.00
62420;BME280;48460;51.616;5.426;2022-09-27T08:03:48;99857.81;;;8.07;100.00
62420;BME280;48460;51.616;5.426;2022-09-27T08:06:13;99871.56;;;8.10;100.00
62420;BME280;48460;51.616;5.426;2022-09-27T08:08:38;99866.34;;;8.10;100.00
62420;BME280;48460;51.616;5.426;2022-09-27T08:11:14;99859.31;;;8.11;100.00
62420;BME280;48460;51.616;5.426;2022-09-27T08:13:43;99859.91;;;8.16;100.00
62420;BME280;48460;51.616;5.426;2022-09-27T08:16:10;99853.81;;;8.15;100.00
62420;BME280;48460;51.616;5.426;2022-09-27T08:18:35;99846.69;;;8.17;100.00
62420;BME280;48460;51.616;5.426;2022-09-27T08:21:01;99859.38;;;8.25;100.00
62420;BME280;48460;51.616;5.426;2022-09-27T08:23:27;99852.16;;;8.29;100.00
62420;BME280;48460;51.616;5.426;2022-09-27T08:25:53;99866.75;;;8.33;100.00
62420;BME280;48460;51.616;5.426;2022-09-27T08:28:19;99853.28;;;8.25;100.00
62420;BME280;48460;51.616;5.426;2022-09-27T08:30:47;99857.81;;;8.37;100.00
62420;BME280;48460;51.616;5.426;2022-09-27T08:33:13;99866.28;;;8.42;100.00
62420;BME280;48460;51.616;5.426;2022-09-27T08:35:38;99860.09;;;8.43;100.00
62420;BME280;48460;51.616;5.426;2022-09-27T08:38:04;99863.66;;;8.42;100.00
62420;BME280;48460;51.616;5.426;2022-09-27T08:41:13;99866.47;;;8.53;100.00
62420;BME280;48460;51.616;5.426;2022-09-27T08:43:56;99876.41;;;8.48;100.00
62420;BME280;48460;51.616;5.426;2022-09-27T08:46:41;99877.72;;;8.55;100.00
62420;BME280;48460;51.616;5.426;2022-09-27T08:49:22;99879.31;;;8.58;100.00
62420;BME280;48460;51.616;5.426;2022-09-27T08:51:55;99888.31;;;8.54;100.00
62420;BME280;48460;51.616;5.426;2022-09-27T08:54:29;99888.38;;;8.52;100.00
62420;BME280;48460;51.616;5.426;2022-09-27T08:57:03;99889.22;;;8.53;100.00
62420;BME280;48460;51.616;5.426;2022-09-27T08:59:42;99889.13;;;8.54;100.00
62420;BME280;48460;51.616;5.426;2022-09-27T09:02:18;99886.19;;;8.44;100.00
62420;BME280;48460;51.616;5.426;2022-09-27T09:04:47;99885.69;;;8.38;100.00
62420;BME280;48460;51.616;5.426;2022-09-27T09:09:56;99890.78;;;8.41;100.00
62420;BME280;48460;51.616;5.426;2022-09-27T09:21:34;99904.47;;;8.46;100.00
62420;BME280;48460;51.616;5.426;2022-09-27T09:24:32;99908.19;;;8.42;100.00
62420;BME280;48460;51.616;5.426;2022-09-27T09:27:14;99912.06;;;8.51;100.00
62420;BME280;48460;51.616;5.426;2022-09-27T09:30:00;99909.25;;;8.54;100.00
62420;BME280;48460;51.616;5.426;2022-09-27T09:35:21;99905.78;;;8.53;100.00
62420;BME280;48460;51.616;5.426;2022-09-27T09:37:56;99905.13;;;8.50;100.00
62420;BME280;48460;51.616;5.426;2022-09-27T09:40:43;99904.09;;;8.52;100.00
62420;BME280;48460;51.616;5.426;2022-09-27T09:45:52;99912.91;;;8.51;100.00
62420;BME280;48460;51.616;5.426;2022-09-27T09:48:40;99910.53;;;8.47;100.00
62420;BME280;48460;51.616;5.426;2022-09-27T09:51:15;99907.59;;;8.37;100.00
62420;BME280;48460;51.616;5.426;2022-09-27T09:54:05;99905.31;;;8.31;100.00
62420;BME280;48460;51.616;5.426;2022-09-27T09:56:34;99907.88;;;8.16;100.00
62420;BME280;48460;51.616;5.426;2022-09-27T09:59:09;99905.78;;;8.07;100.00
62420;BME280;48460;51.616;5.426;2022-09-27T10:01:45;99898.69;;;8.09;100.00
62420;BME280;48460;51.616;5.426;2022-09-27T10:04:23;99910.00;;;8.10;100.00
62420;BME280;48460;51.616;5.426;2022-09-27T10:06:52;99904.66;;;8.11;100.00
62420;BME280;48460;51.616;5.426;2022-09-27T10:09:26;99902.22;;;8.08;100.00
62420;BME280;48460;51.616;5.426;2022-09-27T10:11:53;99911.81;;;8.23;100.00
62420;BME280;48460;51.616;5.426;2022-09-27T10:14:20;99908.13;;;8.28;100.00
62420;BME280;48460;51.616;5.426;2022-09-27T10:16:48;99909.31;;;8.22;100.00
62420;BME280;48460;51.616;5.426;2022-09-27T10:19:22;99906.06;;;8.33;100.00
62420;BME280;48460;51.616;5.426;2022-09-27T10:21:51;99912.88;;;8.21;100.00
62420;BME280;48460;51.616;5.426;2022-09-27T10:24:17;99909.56;;;8.17;100.00
62420;BME280;48460;51.616;5.426;2022-09-27T10:26:45;99914.78;;;8.17;100.00
62420;BME280;48460;51.616;5.426;2022-09-27T10:29:15;99912.75;;;8.22;100.00
62420;BME280;48460;51.616;5.426;2022-09-27T10:31:43;99904.13;;;8.20;100.00
62420;BME280;48460;51.616;5.426;2022-09-27T10:39:34;99908.53;;;8.20;100.00
62420;BME280;48460;51.616;5.426;2022-09-27T10:42:01;99907.69;;;8.19;100.00
62420;BME280;48460;51.616;5.426;2022-09-27T10:44:27;99908.19;;;8.26;100.00
62420;BME280;48460;51.616;5.426;2022-09-27T10:47:05;99909.97;;;8.26;100.00
62420;BME280;48460;51.616;5.426;2022-09-27T10:49:35;99909.31;;;8.22;100.00
62420;BME280;48460;51.616;5.426;2022-09-27T10:52:14;99918.78;;;8.25;100.00
62420;BME280;48460;51.616;5.426;2022-09-27T10:54:41;99911.94;;;8.22;100.00
62420;BME280;48460;51.616;5.426;2022-09-27T10:59:40;99915.72;;;8.16;100.00
62420;BME280;48460;51.616;5.426;2022-09-27T11:02:26;99910.75;;;8.28;100.00
62420;BME280;48460;51.616;5.426;2022-09-27T11:05:14;99914.59;;;8.36;100.00
62420;BME280;48460;51.616;5.426;2022-09-27T11:08:17;99916.53;;;8.49;100.00
62420;BME280;48460;51.616;5.426;2022-09-27T11:13:37;99910.56;;;8.61;100.00
62420;BME280;48460;51.616;5.426;2022-09-27T11:22:00;99910.63;;;8.75;100.00
62420;BME280;48460;51.616;5.426;2022-09-27T11:30:16;99912.50;;;8.87;100.00
62420;BME280;48460;51.616;5.426;2022-09-27T11:44:03;99887.78;;;9.20;100.00
62420;BME280;48460;51.616;5.426;2022-09-27T11:46:36;99883.09;;;9.25;100.00
62420;BME280;48460;51.616;5.426;2022-09-27T11:49:22;99891.25;;;9.35;100.00
62420;BME280;48460;51.616;5.426;2022-09-27T11:52:15;99882.22;;;9.39;100.00
62420;BME280;48460;51.616;5.426;2022-09-27T11:55:09;99888.50;;;9.36;100.00
62420;BME280;48460;51.616;5.426;2022-09-27T11:57:46;99883.56;;;9.32;100.00
62420;BME280;48460;51.616;5.426;2022-09-27T12:00:15;99899.31;;;9.32;100.00
62420;BME280;48460;51.616;5.426;2022-09-27T12:13:58;99888.81;;;9.88;100.00
62420;BME280;48460;51.616;5.426;2022-09-27T12:16:26;99896.00;;;10.11;100.00
62420;BME280;48460;51.616;5.426;2022-09-27T12:18:53;99894.03;;;10.15;100.00
62420;BME280;48460;51.616;5.426;2022-09-27T12:21:20;99879.38;;;9.98;100.00
62420;BME280;48460;51.616;5.426;2022-09-27T12:23:53;99883.81;;;10.10;100.00
62420;BME280;48460;51.616;5.426;2022-09-27T12:26:36;99883.19;;;10.07;100.00
62420;BME280;48460;51.616;5.426;2022-09-27T12:29:39;99886.44;;;10.10;100.00
62420;BME280;48460;51.616;5.426;2022-09-27T12:32:25;99887.44;;;10.22;100.00
62420;BME280;48460;51.616;5.426;2022-09-27T12:35:23;99885.53;;;10.51;100.00
62420;BME280;48460;51.616;5.426;2022-09-27T12:37:58;99883.75;;;10.52;100.00
62420;BME280;48460;51.616;5.426;2022-09-27T12:40:31;99875.22;;;10.48;100.00
62420;BME280;48460;51.616;5.426;2022-09-27T12:43:12;99871.44;;;10.52;100.00
62420;BME280;48460;51.616;5.426;2022-09-27T12:48:51;99875.47;;;10.83;100.00
62420;BME280;48460;51.616;5.426;2022-09-27T12:51:22;99878.00;;;10.98;100.00
62420;BME280;48460;51.616;5.426;2022-09-27T12:57:10;99878.19;;;11.07;100.00
62420;BME280;48460;51.616;5.426;2022-09-27T13:00:23;99870.50;;;11.17;100.00
62420;BME280;48460;51.616;5.426;2022-09-27T13:03:29;99866.47;;;11.24;100.00
62420;BME280;48460;51.616;5.426;2022-09-27T13:11:28;99860.94;;;11.16;100.00
62420;BME280;48460;51.616;5.426;2022-09-27T13:14:04;99851.63;;;11.23;100.00
62420;BME280;48460;51.616;5.426;2022-09-27T13:16:41;99851.94;;;11.31;100.00
62420;BME280;48460;51.616;5.426;2022-09-27T13:22:03;99841.91;;;11.73;100.00
62420;BME280;48460;51.616;5.426;2022-09-27T13:32:32;99834.91;;;12.09;100.00
62420;BME280;48460;51.616;5.426;2022-09-27T13:40:26;99831.09;;;12.13;100.00
62420;BME280;48460;51.616;5.426;2022-09-27T13:46:06;99834.50;;;11.91;99.18
62420;BME280;48460;51.616;5.426;2022-09-27T13:49:12;99827.06;;;11.72;99.03
62420;BME280;48460;51.616;5.426;2022-09-27T13:51:43;99831.81;;;11.67;100.00
62420;BME280;48460;51.616;5.426;2022-09-27T13:54:49;99825.38;;;11.71;100.00
62420;BME280;48460;51.616;5.426;2022-09-27T13:57:50;99818.94;;;11.75;100.00
62420;BME280;48460;51.616;5.426;2022-09-27T14:00:23;99817.38;;;11.73;100.00
62420;BME280;48460;51.616;5.426;2022-09-27T14:03:01;99817.69;;;11.68;100.00
62420;BME280;48460;51.616;5.426;2022-09-27T14:05:35;99825.25;;;11.49;100.00
62420;BME280;48460;51.616;5.426;2022-09-27T14:08:03;99814.34;;;11.29;100.00
62420;BME280;48460;51.616;5.426;2022-09-27T14:10:31;99819.66;;;11.16;100.00
62420;BME280;48460;51.616;5.426;2022-09-27T14:13:00;99825.25;;;10.99;100.00
62420;BME280;48460;51.616;5.426;2022-09-27T14:15:30;99826.34;;;10.71;100.00
62420;BME280;48460;51.616;5.426;2022-09-27T14:17:57;99831.16;;;10.52;100.00
62420;BME280;48460;51.616;5.426;2022-09-27T14:20:33;99837.13;;;10.41;100.00
62420;BME280;48460;51.616;5.426;2022-09-27T14:23:00;99837.13;;;10.28;100.00
62420;BME280;48460;51.616;5.426;2022-09-27T14:25:26;99838.56;;;10.19;100.00
62420;BME280;48460;51.616;5.426;2022-09-27T14:27:52;99838.94;;;10.00;100.00
62420;BME280;48460;51.616;5.426;2022-09-27T14:30:20;99823.84;;;9.77;100.00
62420;BME280;48460;51.616;5.426;2022-09-27T14:32:48;99806.94;;;9.54;100.00
62420;BME280;48460;51.616;5.426;2022-09-27T14:35:19;99811.50;;;9.38;100.00
62420;BME280;48460;51.616;5.426;2022-09-27T14:38:09;99805.50;;;9.35;100.00
62420;BME280;48460;51.616;5.426;2022-09-27T14:41:03;99802.28;;;9.45;100.00
62420;BME280;48460;51.616;5.426;2022-09-27T14:43:27;99795.91;;;9.49;100.00
62420;BME280;48460;51.616;5.426;2022-09-27T14:46:04;99781.59;;;9.40;100.00
62420;BME280;48460;51.616;5.426;2022-09-27T14:48:37;99797.47;;;9.51;100.00
62420;BME280;48460;51.616;5.426;2022-09-27T14:53:50;99797.97;;;9.44;100.00
62420;BME280;48460;51.616;5.426;2022-09-27T14:56:24;99797.75;;;9.34;100.00
62420;BME280;48460;51.616;5.426;2022-09-27T14:58:58;99807.38;;;9.33;100.00
62420;BME280;48460;51.616;5.426;2022-09-27T15:01:27;99803.91;;;9.33;100.00
62420;BME280;48460;51.616;5.426;2022-09-27T15:03:55;99805.84;;;9.44;100.00
62420;BME280;48460;51.616;5.426;2022-09-27T15:06:21;99805.91;;;9.56;100.00
62420;BME280;48460;51.616;5.426;2022-09-27T15:08:49;99808.13;;;9.63;100.00
62420;BME280;48460;51.616;5.426;2022-09-27T15:11:18;99806.25;;;9.65;100.00
62420;BME280;48460;51.616;5.426;2022-09-27T15:13:45;99813.72;;;9.71;100.00
62420;BME280;48460;51.616;5.426;2022-09-27T15:16:17;99808.69;;;9.68;100.00
62420;BME280;48460;51.616;5.426;2022-09-27T15:18:58;99802.69;;;9.66;100.00
62420;BME280;48460;51.616;5.426;2022-09-27T15:21:35;99812.50;;;9.76;100.00
62420;BME280;48460;51.616;5.426;2022-09-27T15:24:02;99811.88;;;9.73;100.00
62420;BME280;48460;51.616;5.426;2022-09-27T15:26:40;99813.63;;;9.72;100.00
62420;BME280;48460;51.616;5.426;2022-09-27T15:29:26;99815.81;;;9.66;100.00
62420;BME280;48460;51.616;5.426;2022-09-27T15:32:01;99803.41;;;9.55;100.00
62420;BME280;48460;51.616;5.426;2022-09-27T15:34:30;99804.63;;;9.49;100.00
62420;BME280;48460;51.616;5.426;2022-09-27T15:37:00;99797.53;;;9.37;100.00
62420;BME280;48460;51.616;5.426;2022-09-27T15:39:33;99803.91;;;9.33;100.00
62420;BME280;48460;51.616;5.426;2022-09-27T15:42:13;99795.78;;;9.23;100.00
62420;BME280;48460;51.616;5.426;2022-09-27T15:49:59;99795.41;;;9.15;100.00